sensor_id;sensor_type;location;lat;lon;timestamp;temperature;humidity
3756;DHT22;1893;52.526;13.360;2022-12-26T00:00:13;9.10;99.90
3756;DHT22;1893;52.526;13.360;2022-12-26T00:02:40;9.10;99.90
3756;DHT22;1893;52.526;13.360;2022-12-26T00:05:06;9.10;99.90
3756;DHT22;1893;52.526;13.360;2022-12-26T00:07:32;9.10;99.90
3756;DHT22;1893;52.526;13.360;2022-12-26T00:09:57;9.20;99.90
3756;DHT22;1893;52.526;13.360;2022-12-26T00:12:23;9.20;99.90
3756;DHT22;1893;52.526;13.360;2022-12-26T00:14:48;9.20;99.90
3756;DHT22;1893;52.526;13.360;2022-12-26T00:17:14;9.10;99.90
3756;DHT22;1893;52.526;13.360;2022-12-26T00:19:39;9.20;99.90
3756;DHT22;1893;52.526;13.360;2022-12-26T00:22:05;9.20;99.90
3756;DHT22;1893;52.526;13.360;2022-12-26T00:24:31;9.20;99.90
3756;DHT22;1893;52.526;13.360;2022-12-26T00:26:56;9.20;99.90
3756;DHT22;1893;52.526;13.360;2022-12-26T00:29:22;9.20;99.90
3756;DHT22;1893;52.526;13.360;2022-12-26T00:31:48;9.20;99.90
3756;DHT22;1893;52.526;13.360;2022-12-26T00:34:14;9.20;99.90
3756;DHT22;1893;52.526;13.360;2022-12-26T00:36:39;9.20;99.90
3756;DHT22;1893;52.526;13.360;2022-12-26T00:39:05;9.20;99.90
3756;DHT22;1893;52.526;13.360;2022-12-26T00:41:31;9.20;99.90
3756;DHT22;1893;52.526;13.360;2022-12-26T00:43:57;9.20;99.90
3756;DHT22;1893;52.526;13.360;2022-12-26T00:46:23;9.30;99.90
3756;DHT22;1893;52.526;13.360;2022-12-26T00:48:48;9.30;99.90
3756;DHT22;1893;52.526;13.360;2022-12-26T00:51:14;9.30;99.90
3756;DHT22;1893;52.526;13.360;2022-12-26T00:53:40;9.30;99.90
3756;DHT22;1893;52.526;13.360;2022-12-26T00:56:07;9.30;99.90
3756;DHT22;1893;52.526;13.360;2022-12-26T00:58:32;9.30;99.90
3756;DHT22;1893;52.526;13.360;2022-12-26T01:01:19;9.30;99.90
3756;DHT22;1893;52.526;13.360;2022-12-26T01:03:46;9.30;99.90
3756;DHT22;1893;52.526;13.360;2022-12-26T01:06:12;9.30;99.90
3756;DHT22;1893;52.526;13.360;2022-12-26T01:08:38;9.30;99.90
3756;DHT22;1893;52.526;13.360;2022-12-26T01:11:06;9.30;99.90
3756;DHT22;1893;52.526;13.360;2022-12-26T01:13:33;9.40;99.90
3756;DHT22;1893;52.526;13.360;2022-12-26T01:15:58;9.40;99.90
3756;DHT22;1893;52.526;13.360;2022-12-26T01:18:24;9.40;99.90
3756;DHT22;1893;52.526;13.360;2022-12-26T01:20:50;9.40;99.90
3756;DHT22;1893;52.526;13.360;2022-12-26T01:23:16;9.50;99.90
3756;DHT22;1893;52.526;13.360;2022-12-26T01:25:42;9.50;99.90
3756;DHT22;1893;52.526;13.360;2022-12-26T01:28:08;9.50;99.90
3756;DHT22;1893;52.526;13.360;2022-12-26T01:30:33;9.50;99.90
3756;DHT22;1893;52.526;13.360;2022-12-26T01:32:59;9.50;99.90
3756;DHT22;1893;52.526;13.360;2022-12-26T01:35:24;9.50;99.90
3756;DHT22;1893;52.526;13.360;2022-12-26T01:37:50;9.50;99.90
3756;DHT22;1893;52.526;13.360;2022-12-26T01:40:16;9.50;99.90
3756;DHT22;1893;52.526;13.360;2022-12-26T01:42:41;9.50;99.90
3756;DHT22;1893;52.526;13.360;2022-12-26T01:47:57;9.60;99.90
3756;DHT22;1893;52.526;13.360;2022-12-26T01:50:28;9.60;99.90
3756;DHT22;1893;52.526;13.360;2022-12-26T01:52:57;9.50;99.90
3756;DHT22;1893;52.526;13.360;2022-12-26T01:55:24;9.50;99.90
3756;DHT22;1893;52.526;13.360;2022-12-26T01:57:57;9.50;99.90
3756;DHT22;1893;52.526;13.360;2022-12-26T02:00:25;9.50;99.90
3756;DHT22;1893;52.526;13.360;2022-12-26T02:02:51;9.50;99.90
3756;DHT22;1893;52.526;13.360;2022-12-26T02:05:36;9.40;99.90
3756;DHT22;1893;52.526;13.360;2022-12-26T02:08:12;9.50;99.90
3756;DHT22;1893;52.526;13.360;2022-12-26T02:10:50;9.50;99.90
3756;DHT22;1893;52.526;13.360;2022-12-26T02:13:18;9.50;99.90
3756;DHT22;1893;52.526;13.360;2022-12-26T02:15:51;9.50;99.90
3756;DHT22;1893;52.526;13.360;2022-12-26T02:18:17;9.50;99.90
3756;DHT22;1893;52.526;13.360;2022-12-26T02:29:15;9.70;99.90
3756;DHT22;1893;52.526;13.360;2022-12-26T02:45:42;9.80;99.90
3756;DHT22;1893;52.526;13.360;2022-12-26T02:57:23;9.80;99.90
3756;DHT22;1893;52.526;13.360;2022-12-26T03:03:25;9.80;99.90
3756;DHT22;1893;52.526;13.360;2022-12-26T03:09:02;9.90;99.90
3756;DHT22;1893;52.526;13.360;2022-12-26T03:11:56;9.70;99.90
3756;DHT22;1893;52.526;13.360;2022-12-26T03:14:49;9.70;99.90
3756;DHT22;1893;52.526;13.360;2022-12-26T03:17:28;9.80;99.90
3756;DHT22;1893;52.526;13.360;2022-12-26T03:20:01;9.80;99.90
3756;DHT22;1893;52.526;13.360;2022-12-26T03:22:59;9.80;99.90
3756;DHT22;1893;52.526;13.360;2022-12-26T03:25:36;9.90;99.90
3756;DHT22;1893;52.526;13.360;2022-12-26T03:28:23;9.90;99.90
3756;DHT22;1893;52.526;13.360;2022-12-26T03:30:49;9.90;99.90
3756;DHT22;1893;52.526;13.360;2022-12-26T03:33:25;10.00;99.90
3756;DHT22;1893;52.526;13.360;2022-12-26T03:36:28;10.00;99.90
3756;DHT22;1893;52.526;13.360;2022-12-26T03:41:54;10.00;99.90
3756;DHT22;1893;52.526;13.360;2022-12-26T03:44:56;10.10;99.90
3756;DHT22;1893;52.526;13.360;2022-12-26T03:47:56;10.10;99.90
3756;DHT22;1893;52.526;13.360;2022-12-26T03:50:50;10.10;99.90
3756;DHT22;1893;52.526;13.360;2022-12-26T03:53:42;10.10;99.90
3756;DHT22;1893;52.526;13.360;2022-12-26T03:56:40;10.10;99.90
3756;DHT22;1893;52.526;13.360;2022-12-26T03:59:43;10.10;99.90
3756;DHT22;1893;52.526;13.360;2022-12-26T04:02:31;10.10;99.90
3756;DHT22;1893;52.526;13.360;2022-12-26T04:05:16;10.10;99.90
3756;DHT22;1893;52.526;13.360;2022-12-26T04:08:10;10.10;99.90
3756;DHT22;1893;52.526;13.360;2022-12-26T04:10:57;10.20;99.90
3756;DHT22;1893;52.526;13.360;2022-12-26T04:14:09;10.20;99.90
3756;DHT22;1893;52.526;13.360;2022-12-26T04:20:21;10.30;99.90
3756;DHT22;1893;52.526;13.360;2022-12-26T04:22:57;10.30;99.90
3756;DHT22;1893;52.526;13.360;2022-12-26T04:25:50;10.30;99.90
3756;DHT22;1893;52.526;13.360;2022-12-26T04:28:35;10.30;99.90
3756;DHT22;1893;52.526;13.360;2022-12-26T04:31:28;10.30;99.90
3756;DHT22;1893;52.526;13.360;2022-12-26T04:34:25;10.20;99.90
3756;DHT22;1893;52.526;13.360;2022-12-26T04:37:18;10.20;99.90
3756;DHT22;1893;52.526;13.360;2022-12-26T04:40:07;10.20;99.90
3756;DHT22;1893;52.526;13.360;2022-12-26T04:42:53;10.20;99.90
3756;DHT22;1893;52.526;13.360;2022-12-26T04:45:38;10.20;99.90
3756;DHT22;1893;52.526;13.360;2022-12-26T04:48:05;10.20;99.90
3756;DHT22;1893;52.526;13.360;2022-12-26T04:50:50;10.20;99.90
3756;DHT22;1893;52.526;13.360;2022-12-26T04:53:16;10.30;99.90
3756;DHT22;1893;52.526;13.360;2022-12-26T04:55:42;10.20;99.90
3756;DHT22;1893;52.526;13.360;2022-12-26T04:58:08;10.30;99.90
3756;DHT22;1893;52.526;13.360;2022-12-26T05:00:33;10.30;99.90
3756;DHT22;1893;52.526;13.360;2022-12-26T05:02:59;10.20;99.90
3756;DHT22;1893;52.526;13.360;2022-12-26T05:05:46;10.20;99.90
3756;DHT22;1893;52.526;13.360;2022-12-26T05:08:39;10.20;99.90
3756;DHT22;1893;52.526;13.360;2022-12-26T05:11:24;10.30;99.90
3756;DHT22;1893;52.526;13.360;2022-12-26T05:13:52;10.20;99.90
3756;DHT22;1893;52.526;13.360;2022-12-26T05:16:18;10.20;99.90
3756;DHT22;1893;52.526;13.360;2022-12-26T05:19:22;10.20;99.90
3756;DHT22;1893;52.526;13.360;2022-12-26T05:22:09;10.30;99.90
3756;DHT22;1893;52.526;13.360;2022-12-26T05:24:54;10.30;99.90
3756;DHT22;1893;52.526;13.360;2022-12-26T05:27:41;10.30;99.90
3756;DHT22;1893;52.526;13.360;2022-12-26T05:30:28;10.30;99.90
3756;DHT22;1893;52.526;13.360;2022-12-26T05:32:53;10.20;99.90
3756;DHT22;1893;52.526;13.360;2022-12-26T05:35:38;10.30;99.90
3756;DHT22;1893;52.526;13.360;2022-12-26T05:38:04;10.30;99.90
3756;DHT22;1893;52.526;13.360;2022-12-26T05:40:30;10.30;99.90
3756;DHT22;1893;52.526;13.360;2022-12-26T05:42:56;10.30;99.90
3756;DHT22;1893;52.526;13.360;2022-12-26T05:45:21;10.30;99.90
3756;DHT22;1893;52.526;13.360;2022-12-26T05:47:47;10.30;99.90
3756;DHT22;1893;52.526;13.360;2022-12-26T05:50:12;10.30;99.90
3756;DHT22;1893;52.526;13.360;2022-12-26T05:52:38;10.30;99.90
3756;DHT22;1893;52.526;13.360;2022-12-26T05:55:04;10.30;99.90
3756;DHT22;1893;52.526;13.360;2022-12-26T05:57:30;10.30;99.90
3756;DHT22;1893;52.526;13.360;2022-12-26T05:59:55;10.30;99.90
3756;DHT22;1893;52.526;13.360;2022-12-26T06:02:21;10.30;99.90
3756;DHT22;1893;52.526;13.360;2022-12-26T06:04:46;10.30;99.90
3756;DHT22;1893;52.526;13.360;2022-12-26T06:07:12;10.30;99.90
3756;DHT22;1893;52.526;13.360;2022-12-26T06:09:38;10.40;99.90
3756;DHT22;1893;52.526;13.360;2022-12-26T06:12:03;10.40;99.90
3756;DHT22;1893;52.526;13.360;2022-12-26T06:14:29;10.40;99.90
3756;DHT22;1893;52.526;13.360;2022-12-26T06:16:54;10.40;99.90
3756;DHT22;1893;52.526;13.360;2022-12-26T06:19:21;10.40;99.90
3756;DHT22;1893;52.526;13.360;2022-12-26T06:21:46;10.40;99.90
3756;DHT22;1893;52.526;13.360;2022-12-26T06:24:12;10.40;99.90
3756;DHT22;1893;52.526;13.360;2022-12-26T06:26:38;10.40;99.90
3756;DHT22;1893;52.526;13.360;2022-12-26T06:29:05;10.40;99.90
3756;DHT22;1893;52.526;13.360;2022-12-26T06:31:31;10.40;99.90
3756;DHT22;1893;52.526;13.360;2022-12-26T06:33:57;10.40;99.90
3756;DHT22;1893;52.526;13.360;2022-12-26T06:36:25;10.40;99.90
3756;DHT22;1893;52.526;13.360;2022-12-26T06:38:52;10.30;99.90
3756;DHT22;1893;52.526;13.360;2022-12-26T06:41:20;10.40;99.90
3756;DHT22;1893;52.526;13.360;2022-12-26T06:43:45;10.40;99.90
3756;DHT22;1893;52.526;13.360;2022-12-26T06:46:14;10.40;99.90
3756;DHT22;1893;52.526;13.360;2022-12-26T06:48:40;10.30;99.90
3756;DHT22;1893;52.526;13.360;2022-12-26T06:51:09;10.40;99.90
3756;DHT22;1893;52.526;13.360;2022-12-26T06:53:35;10.30;99.90
3756;DHT22;1893;52.526;13.360;2022-12-26T06:56:09;10.40;99.90
3756;DHT22;1893;52.526;13.360;2022-12-26T06:58:35;10.40;99.90
3756;DHT22;1893;52.526;13.360;2022-12-26T07:01:14;10.40;99.90
3756;DHT22;1893;52.526;13.360;2022-12-26T07:03:41;10.40;99.90
3756;DHT22;1893;52.526;13.360;2022-12-26T07:06:11;10.40;99.90
3756;DHT22;1893;52.526;13.360;2022-12-26T07:08:36;10.40;99.90
3756;DHT22;1893;52.526;13.360;2022-12-26T07:11:02;10.60;99.90
3756;DHT22;1893;52.526;13.360;2022-12-26T07:13:28;10.40;99.90
3756;DHT22;1893;52.526;13.360;2022-12-26T07:15:54;10.50;99.90
3756;DHT22;1893;52.526;13.360;2022-12-26T07:18:19;10.40;99.90
3756;DHT22;1893;52.526;13.360;2022-12-26T07:20:45;10.40;99.90
3756;DHT22;1893;52.526;13.360;2022-12-26T07:23:10;10.40;99.90
3756;DHT22;1893;52.526;13.360;2022-12-26T07:25:36;10.40;99.90
3756;DHT22;1893;52.526;13.360;2022-12-26T07:28:02;10.40;99.90
3756;DHT22;1893;52.526;13.360;2022-12-26T07:30:28;10.40;99.90
3756;DHT22;1893;52.526;13.360;2022-12-26T07:32:54;10.40;99.90
3756;DHT22;1893;52.526;13.360;2022-12-26T07:35:19;10.40;99.90
3756;DHT22;1893;52.526;13.360;2022-12-26T07:37:45;10.40;99.90
3756;DHT22;1893;52.526;13.360;2022-12-26T07:40:11;10.40;99.90
3756;DHT22;1893;52.526;13.360;2022-12-26T07:42:36;10.40;99.90
3756;DHT22;1893;52.526;13.360;2022-12-26T07:45:02;10.40;99.90
3756;DHT22;1893;52.526;13.360;2022-12-26T07:47:28;10.40;99.90
3756;DHT22;1893;52.526;13.360;2022-12-26T07:49:53;10.40;99.90
3756;DHT22;1893;52.526;13.360;2022-12-26T07:52:19;10.40;99.90
3756;DHT22;1893;52.526;13.360;2022-12-26T07:54:45;10.40;99.90
3756;DHT22;1893;52.526;13.360;2022-12-26T07:57:11;10.40;99.90
3756;DHT22;1893;52.526;13.360;2022-12-26T07:59:36;10.40;99.90
3756;DHT22;1893;52.526;13.360;2022-12-26T08:02:02;10.40;99.90
3756;DHT22;1893;52.526;13.360;2022-12-26T08:04:32;10.40;99.90
3756;DHT22;1893;52.526;13.360;2022-12-26T08:06:58;10.30;99.90
3756;DHT22;1893;52.526;13.360;2022-12-26T08:09:24;10.40;99.90
3756;DHT22;1893;52.526;13.360;2022-12-26T08:11:49;10.40;99.90
3756;DHT22;1893;52.526;13.360;2022-12-26T08:14:15;10.30;99.90
3756;DHT22;1893;52.526;13.360;2022-12-26T08:16:42;10.40;99.90
3756;DHT22;1893;52.526;13.360;2022-12-26T08:19:08;10.30;99.90
3756;DHT22;1893;52.526;13.360;2022-12-26T08:21:34;10.50;99.90
3756;DHT22;1893;52.526;13.360;2022-12-26T08:24:00;10.50;99.90
3756;DHT22;1893;52.526;13.360;2022-12-26T08:26:26;10.40;99.90
3756;DHT22;1893;52.526;13.360;2022-12-26T08:28:53;10.40;99.90
3756;DHT22;1893;52.526;13.360;2022-12-26T08:31:20;10.40;99.90
3756;DHT22;1893;52.526;13.360;2022-12-26T08:33:45;10.40;99.90
3756;DHT22;1893;52.526;13.360;2022-12-26T08:36:12;10.50;99.90
3756;DHT22;1893;52.526;13.360;2022-12-26T08:38:39;10.50;99.90
3756;DHT22;1893;52.526;13.360;2022-12-26T08:41:05;10.50;99.90
3756;DHT22;1893;52.526;13.360;2022-12-26T08:43:31;10.50;99.90
3756;DHT22;1893;52.526;13.360;2022-12-26T08:46:03;10.50;99.90
3756;DHT22;1893;52.526;13.360;2022-12-26T08:48:30;10.50;99.90
3756;DHT22;1893;52.526;13.360;2022-12-26T08:51:01;10.50;99.90
3756;DHT22;1893;52.526;13.360;2022-12-26T08:53:28;10.50;99.90
3756;DHT22;1893;52.526;13.360;2022-12-26T08:55:55;10.50;99.90
3756;DHT22;1893;52.526;13.360;2022-12-26T08:58:21;10.50;99.90
3756;DHT22;1893;52.526;13.360;2022-12-26T09:00:46;10.50;99.90
3756;DHT22;1893;52.526;13.360;2022-12-26T09:03:13;10.50;99.90
3756;DHT22;1893;52.526;13.360;2022-12-26T09:05:38;10.50;99.90
3756;DHT22;1893;52.526;13.360;2022-12-26T09:08:04;10.50;99.90
3756;DHT22;1893;52.526;13.360;2022-12-26T09:10:30;10.50;99.90
3756;DHT22;1893;52.526;13.360;2022-12-26T09:12:55;10.50;99.90
3756;DHT22;1893;52.526;13.360;2022-12-26T09:15:21;10.60;99.90
3756;DHT22;1893;52.526;13.360;2022-12-26T09:17:46;10.60;99.90
3756;DHT22;1893;52.526;13.360;2022-12-26T09:20:12;10.70;99.90
3756;DHT22;1893;52.526;13.360;2022-12-26T09:22:38;10.60;99.90
3756;DHT22;1893;52.526;13.360;2022-12-26T09:25:19;10.60;99.90
3756;DHT22;1893;52.526;13.360;2022-12-26T09:27:45;10.60;99.90
3756;DHT22;1893;52.526;13.360;2022-12-26T09:30:11;10.70;99.90
3756;DHT22;1893;52.526;13.360;2022-12-26T09:32:37;10.70;99.90
3756;DHT22;1893;52.526;13.360;2022-12-26T09:35:03;10.70;99.90
3756;DHT22;1893;52.526;13.360;2022-12-26T09:37:29;10.70;99.90
3756;DHT22;1893;52.526;13.360;2022-12-26T09:39:54;10.70;99.90
3756;DHT22;1893;52.526;13.360;2022-12-26T09:42:42;10.70;99.90
3756;DHT22;1893;52.526;13.360;2022-12-26T09:45:18;10.80;99.90
3756;DHT22;1893;52.526;13.360;2022-12-26T09:50:38;10.80;99.90
3756;DHT22;1893;52.526;13.360;2022-12-26T09:53:07;10.80;99.90
3756;DHT22;1893;52.526;13.360;2022-12-26T09:58:25;11.00;99.90
3756;DHT22;1893;52.526;13.360;2022-12-26T10:03:22;10.90;99.90
3756;DHT22;1893;52.526;13.360;2022-12-26T10:08:53;11.00;99.90
3756;DHT22;1893;52.526;13.360;2022-12-26T10:24:46;10.90;99.90
3756;DHT22;1893;52.526;13.360;2022-12-26T10:27:15;10.90;99.90
3756;DHT22;1893;52.526;13.360;2022-12-26T10:29:52;11.00;99.90
3756;DHT22;1893;52.526;13.360;2022-12-26T10:32:42;11.00;99.90
3756;DHT22;1893;52.526;13.360;2022-12-26T10:37:52;10.80;99.90
3756;DHT22;1893;52.526;13.360;2022-12-26T10:40:26;10.80;99.90
3756;DHT22;1893;52.526;13.360;2022-12-26T10:43:03;10.80;99.90
3756;DHT22;1893;52.526;13.360;2022-12-26T10:45:54;10.70;99.90
3756;DHT22;1893;52.526;13.360;2022-12-26T10:48:26;10.80;99.90
3756;DHT22;1893;52.526;13.360;2022-12-26T10:50:53;10.80;99.90
3756;DHT22;1893;52.526;13.360;2022-12-26T10:53:19;10.70;99.90
3756;DHT22;1893;52.526;13.360;2022-12-26T10:55:44;10.70;99.90
3756;DHT22;1893;52.526;13.360;2022-12-26T10:58:28;10.70;99.90
3756;DHT22;1893;52.526;13.360;2022-12-26T11:00:55;10.70;99.90
3756;DHT22;1893;52.526;13.360;2022-12-26T11:03:21;10.60;99.90
3756;DHT22;1893;52.526;13.360;2022-12-26T11:05:51;10.60;99.90
3756;DHT22;1893;52.526;13.360;2022-12-26T11:08:22;10.60;99.90
3756;DHT22;1893;52.526;13.360;2022-12-26T11:13:34;10.60;99.90
3756;DHT22;1893;52.526;13.360;2022-12-26T11:16:01;10.60;99.90
3756;DHT22;1893;52.526;13.360;2022-12-26T11:18:34;10.60;99.90
3756;DHT22;1893;52.526;13.360;2022-12-26T11:21:24;10.50;99.90
3756;DHT22;1893;52.526;13.360;2022-12-26T11:26:37;10.50;99.90
3756;DHT22;1893;52.526;13.360;2022-12-26T11:29:13;10.50;99.90
3756;DHT22;1893;52.526;13.360;2022-12-26T11:32:14;10.40;99.90
3756;DHT22;1893;52.526;13.360;2022-12-26T11:34:39;10.50;99.90
3756;DHT22;1893;52.526;13.360;2022-12-26T11:37:24;10.40;99.90
3756;DHT22;1893;52.526;13.360;2022-12-26T11:39:51;10.40;99.90
3756;DHT22;1893;52.526;13.360;2022-12-26T11:42:22;10.40;99.90
3756;DHT22;1893;52.526;13.360;2022-12-26T11:44:50;10.40;99.90
3756;DHT22;1893;52.526;13.360;2022-12-26T11:47:19;10.40;99.90
3756;DHT22;1893;52.526;13.360;2022-12-26T11:49:50;10.30;99.90
3756;DHT22;1893;52.526;13.360;2022-12-26T11:53:02;10.50;99.90
3756;DHT22;1893;52.526;13.360;2022-12-26T12:01:01;10.60;99.90
3756;DHT22;1893;52.526;13.360;2022-12-26T12:09:03;10.60;99.90
3756;DHT22;1893;52.526;13.360;2022-12-26T12:28:41;10.30;99.90
3756;DHT22;1893;52.526;13.360;2022-12-26T12:32:09;10.30;99.90
3756;DHT22;1893;52.526;13.360;2022-12-26T12:40:04;10.40;99.90
3756;DHT22;1893;52.526;13.360;2022-12-26T12:46:15;10.40;99.90
3756;DHT22;1893;52.526;13.360;2022-12-26T13:02:50;10.50;99.90
3756;DHT22;1893;52.526;13.360;2022-12-26T13:08:26;10.60;99.90
3756;DHT22;1893;52.526;13.360;2022-12-26T13:11:04;10.60;99.90
3756;DHT22;1893;52.526;13.360;2022-12-26T13:13:32;10.60;99.90
3756;DHT22;1893;52.526;13.360;2022-12-26T13:16:06;10.60;99.90
3756;DHT22;1893;52.526;13.360;2022-12-26T13:18:39;10.50;99.90
3756;DHT22;1893;52.526;13.360;2022-12-26T13:21:09;10.50;99.90
3756;DHT22;1893;52.526;13.360;2022-12-26T13:23:45;10.40;99.90
3756;DHT22;1893;52.526;13.360;2022-12-26T13:26:40;10.40;99.90
3756;DHT22;1893;52.526;13.360;2022-12-26T13:29:41;10.40;99.90
3756;DHT22;1893;52.526;13.360;2022-12-26T13:32:27;10.40;99.90
3756;DHT22;1893;52.526;13.360;2022-12-26T13:34:59;10.40;99.90
3756;DHT22;1893;52.526;13.360;2022-12-26T13:40:15;10.40;99.90
3756;DHT22;1893;52.526;13.360;2022-12-26T13:42:49;10.40;99.90
3756;DHT22;1893;52.526;13.360;2022-12-26T13:50:53;10.30;99.90
3756;DHT22;1893;52.526;13.360;2022-12-26T13:55:58;10.30;99.90
3756;DHT22;1893;52.526;13.360;2022-12-26T13:58:45;10.20;99.90
3756;DHT22;1893;52.526;13.360;2022-12-26T14:06:57;10.20;99.90
3756;DHT22;1893;52.526;13.360;2022-12-26T14:25:31;10.20;99.90
3756;DHT22;1893;52.526;13.360;2022-12-26T14:28:22;10.10;99.90
3756;DHT22;1893;52.526;13.360;2022-12-26T14:31:17;10.10;99.90
3756;DHT22;1893;52.526;13.360;2022-12-26T14:36:52;10.00;99.90
3756;DHT22;1893;52.526;13.360;2022-12-26T14:39:37;10.00;99.90
3756;DHT22;1893;52.526;13.360;2022-12-26T14:44:52;10.00;99.90
3756;DHT22;1893;52.526;13.360;2022-12-26T14:47:44;9.90;99.90
3756;DHT22;1893;52.526;13.360;2022-12-26T15:01:41;10.10;99.90
3756;DHT22;1893;52.526;13.360;2022-12-26T15:21:02;10.10;99.90
3756;DHT22;1893;52.526;13.360;2022-12-26T15:32:15;10.10;99.90
3756;DHT22;1893;52.526;13.360;2022-12-26T15:35:31;10.10;99.90
3756;DHT22;1893;52.526;13.360;2022-12-26T15:40:28;9.90;99.90
3756;DHT22;1893;52.526;13.360;2022-12-26T15:43:25;9.90;99.90
3756;DHT22;1893;52.526;13.360;2022-12-26T15:57:09;9.70;1.00
3756;DHT22;1893;52.526;13.360;2022-12-26T16:00:19;9.70;1.00
3756;DHT22;1893;52.526;13.360;2022-12-26T16:02:46;9.60;1.00
3756;DHT22;1893;52.526;13.360;2022-12-26T16:08:04;9.60;1.00
3756;DHT22;1893;52.526;13.360;2022-12-26T16:10:34;9.60;8.60
3756;DHT22;1893;52.526;13.360;2022-12-26T16:15:51;9.70;29.40
3756;DHT22;1893;52.526;13.360;2022-12-26T16:18:20;9.60;29.00
3756;DHT22;1893;52.526;13.360;2022-12-26T16:20:48;9.60;60.90
3756;DHT22;1893;52.526;13.360;2022-12-26T16:23:48;9.70;27.40
3756;DHT22;1893;52.526;13.360;2022-12-26T16:26:28;9.70;11.90
3756;DHT22;1893;52.526;13.360;2022-12-26T16:28:56;9.70;9.50
3756;DHT22;1893;52.526;13.360;2022-12-26T16:31:25;9.80;1.00
3756;DHT22;1893;52.526;13.360;2022-12-26T16:33:52;9.70;1.00
3756;DHT22;1893;52.526;13.360;2022-12-26T16:36:22;9.70;1.00
3756;DHT22;1893;52.526;13.360;2022-12-26T16:38:48;9.80;1.00
3756;DHT22;1893;52.526;13.360;2022-12-26T16:41:30;9.80;1.00
3756;DHT22;1893;52.526;13.360;2022-12-26T16:44:27;9.70;1.00
3756;DHT22;1893;52.526;13.360;2022-12-26T16:46:53;9.80;1.00
3756;DHT22;1893;52.526;13.360;2022-12-26T16:49:19;9.80;1.00
3756;DHT22;1893;52.526;13.360;2022-12-26T16:51:47;9.80;99.90
3756;DHT22;1893;52.526;13.360;2022-12-26T16:54:26;9.80;99.90
3756;DHT22;1893;52.526;13.360;2022-12-26T16:57:06;9.80;99.90
3756;DHT22;1893;52.526;13.360;2022-12-26T16:59:49;9.80;99.90
3756;DHT22;1893;52.526;13.360;2022-12-26T17:02:26;9.80;99.90
3756;DHT22;1893;52.526;13.360;2022-12-26T17:04:58;9.80;99.90
3756;DHT22;1893;52.526;13.360;2022-12-26T17:07:24;9.90;99.90
3756;DHT22;1893;52.526;13.360;2022-12-26T17:09:54;10.00;99.90
3756;DHT22;1893;52.526;13.360;2022-12-26T17:12:33;10.00;99.90
3756;DHT22;1893;52.526;13.360;2022-12-26T17:15:00;10.10;99.90
3756;DHT22;1893;52.526;13.360;2022-12-26T17:17:31;10.00;99.90
3756;DHT22;1893;52.526;13.360;2022-12-26T17:20:26;9.90;99.90
3756;DHT22;1893;52.526;13.360;2022-12-26T17:22:44;9.90;99.90
3756;DHT22;1893;52.526;13.360;2022-12-26T17:25:30;9.80;99.90
3756;DHT22;1893;52.526;13.360;2022-12-26T17:30:33;9.80;99.90
3756;DHT22;1893;52.526;13.360;2022-12-26T17:33:15;9.80;99.90
3756;DHT22;1893;52.526;13.360;2022-12-26T17:35:49;9.80;99.90
3756;DHT22;1893;52.526;13.360;2022-12-26T17:38:22;9.70;99.90
3756;DHT22;1893;52.526;13.360;2022-12-26T17:40:52;9.70;99.90
3756;DHT22;1893;52.526;13.360;2022-12-26T17:43:20;9.60;99.90
3756;DHT22;1893;52.526;13.360;2022-12-26T17:45:46;9.50;99.90
3756;DHT22;1893;52.526;13.360;2022-12-26T17:48:13;9.40;99.90
3756;DHT22;1893;52.526;13.360;2022-12-26T17:50:41;9.40;99.90
3756;DHT22;1893;52.526;13.360;2022-12-26T17:53:30;9.30;99.90
3756;DHT22;1893;52.526;13.360;2022-12-26T17:56:02;9.30;99.90
3756;DHT22;1893;52.526;13.360;2022-12-26T17:58:28;9.20;99.90
3756;DHT22;1893;52.526;13.360;2022-12-26T18:00:54;9.20;99.90
3756;DHT22;1893;52.526;13.360;2022-12-26T18:03:20;9.20;99.90
3756;DHT22;1893;52.526;13.360;2022-12-26T18:05:47;9.20;99.90
3756;DHT22;1893;52.526;13.360;2022-12-26T18:10:49;9.10;99.90
3756;DHT22;1893;52.526;13.360;2022-12-26T18:13:15;9.10;99.90
3756;DHT22;1893;52.526;13.360;2022-12-26T18:15:41;9.10;99.90
3756;DHT22;1893;52.526;13.360;2022-12-26T18:21:01;9.10;99.90
3756;DHT22;1893;52.526;13.360;2022-12-26T18:23:26;9.10;99.90
3756;DHT22;1893;52.526;13.360;2022-12-26T18:25:54;9.00;99.90
3756;DHT22;1893;52.526;13.360;2022-12-26T18:28:21;9.00;99.90
3756;DHT22;1893;52.526;13.360;2022-12-26T18:30:47;9.00;99.90
3756;DHT22;1893;52.526;13.360;2022-12-26T18:33:12;9.00;99.90
3756;DHT22;1893;52.526;13.360;2022-12-26T18:35:40;8.90;99.90
3756;DHT22;1893;52.526;13.360;2022-12-26T18:38:06;8.90;99.90
3756;DHT22;1893;52.526;13.360;2022-12-26T18:40:46;8.80;99.90
3756;DHT22;1893;52.526;13.360;2022-12-26T18:43:13;8.80;99.90
3756;DHT22;1893;52.526;13.360;2022-12-26T18:45:39;8.80;99.90
3756;DHT22;1893;52.526;13.360;2022-12-26T18:48:06;8.80;99.90
3756;DHT22;1893;52.526;13.360;2022-12-26T18:50:33;8.70;99.90
3756;DHT22;1893;52.526;13.360;2022-12-26T18:52:59;8.60;99.90
3756;DHT22;1893;52.526;13.360;2022-12-26T18:55:26;8.50;99.90
3756;DHT22;1893;52.526;13.360;2022-12-26T18:57:53;8.40;99.90
3756;DHT22;1893;52.526;13.360;2022-12-26T19:00:19;8.50;99.90
3756;DHT22;1893;52.526;13.360;2022-12-26T19:02:46;8.40;99.90
3756;DHT22;1893;52.526;13.360;2022-12-26T19:05:31;8.40;99.90
3756;DHT22;1893;52.526;13.360;2022-12-26T19:07:59;8.30;99.90
3756;DHT22;1893;52.526;13.360;2022-12-26T19:10:27;8.30;99.90
3756;DHT22;1893;52.526;13.360;2022-12-26T19:12:54;8.20;99.90
3756;DHT22;1893;52.526;13.360;2022-12-26T19:15:21;8.20;99.90
3756;DHT22;1893;52.526;13.360;2022-12-26T19:17:47;8.10;99.90
3756;DHT22;1893;52.526;13.360;2022-12-26T19:20:20;8.10;99.90
3756;DHT22;1893;52.526;13.360;2022-12-26T19:22:46;8.00;99.90
3756;DHT22;1893;52.526;13.360;2022-12-26T19:25:12;7.90;99.90
3756;DHT22;1893;52.526;13.360;2022-12-26T19:27:38;7.90;99.90
3756;DHT22;1893;52.526;13.360;2022-12-26T19:30:04;7.80;99.90
3756;DHT22;1893;52.526;13.360;2022-12-26T19:32:30;7.80;99.90
3756;DHT22;1893;52.526;13.360;2022-12-26T19:34:56;7.70;99.90
3756;DHT22;1893;52.526;13.360;2022-12-26T19:37:22;7.70;99.90
3756;DHT22;1893;52.526;13.360;2022-12-26T19:39:48;7.60;99.90
3756;DHT22;1893;52.526;13.360;2022-12-26T19:42:14;7.50;99.90
3756;DHT22;1893;52.526;13.360;2022-12-26T19:44:40;7.50;99.90
3756;DHT22;1893;52.526;13.360;2022-12-26T19:47:05;7.50;99.90
3756;DHT22;1893;52.526;13.360;2022-12-26T19:49:31;7.40;99.90
3756;DHT22;1893;52.526;13.360;2022-12-26T19:51:57;7.40;99.90
3756;DHT22;1893;52.526;13.360;2022-12-26T19:54:22;7.40;99.90
3756;DHT22;1893;52.526;13.360;2022-12-26T19:56:48;7.40;99.90
3756;DHT22;1893;52.526;13.360;2022-12-26T19:59:13;7.30;99.90
3756;DHT22;1893;52.526;13.360;2022-12-26T20:01:39;7.30;99.90
3756;DHT22;1893;52.526;13.360;2022-12-26T20:04:06;7.30;99.90
3756;DHT22;1893;52.526;13.360;2022-12-26T20:06:34;7.30;99.90
3756;DHT22;1893;52.526;13.360;2022-12-26T20:09:03;7.20;99.90
3756;DHT22;1893;52.526;13.360;2022-12-26T20:11:34;7.20;99.90
3756;DHT22;1893;52.526;13.360;2022-12-26T20:14:01;7.20;99.90
3756;DHT22;1893;52.526;13.360;2022-12-26T20:16:27;7.10;99.90
3756;DHT22;1893;52.526;13.360;2022-12-26T20:18:53;7.10;99.90